sensor_id;sensor_type;location;lat;lon;timestamp;pressure;altitude;pressure_sealevel;temperature;humidity
18850;BME280;4989;48.772;9.154;2023-09-19T00:02:10;97603.94;;;17.79;100.00
18850;BME280;4989;48.772;9.154;2023-09-19T00:07:13;97598.63;;;17.75;100.00
18850;BME280;4989;48.772;9.154;2023-09-19T00:12:16;97621.69;;;17.78;100.00
18850;BME280;4989;48.772;9.154;2023-09-19T00:17:18;97620.59;;;17.75;100.00
18850;BME280;4989;48.772;9.154;2023-09-19T00:22:21;97628.50;;;17.68;100.00
18850;BME280;4989;48.772;9.154;2023-09-19T00:27:23;97636.19;;;17.63;100.00
18850;BME280;4989;48.772;9.154;2023-09-19T00:32:25;97627.47;;;17.65;100.00
18850;BME280;4989;48.772;9.154;2023-09-19T00:37:32;97636.38;;;17.60;100.00
18850;BME280;4989;48.772;9.154;2023-09-19T00:42:34;97640.75;;;17.52;100.00
18850;BME280;4989;48.772;9.154;2023-09-19T00:47:48;97640.75;;;17.52;100.00
18850;BME280;4989;48.772;9.154;2023-09-19T00:52:55;97648.34;;;17.57;100.00
18850;BME280;4989;48.772;9.154;2023-09-19T00:58:01;97650.84;;;17.40;100.00
18850;BME280;4989;48.772;9.154;2023-09-19T01:03:03;97655.56;;;17.39;100.00
18850;BME280;4989;48.772;9.154;2023-09-19T01:08:07;97656.50;;;17.36;100.00
18850;BME280;4989;48.772;9.154;2023-09-19T01:13:47;97661.44;;;17.32;100.00
18850;BME280;4989;48.772;9.154;2023-09-19T01:29:49;97669.47;;;17.51;100.00
18850;BME280;4989;48.772;9.154;2023-09-19T01:34:55;97678.56;;;17.57;100.00
18850;BME280;4989;48.772;9.154;2023-09-19T01:40:10;97672.00;;;17.69;100.00
18850;BME280;4989;48.772;9.154;2023-09-19T01:45:48;97670.50;;;17.68;100.00
18850;BME280;4989;48.772;9.154;2023-09-19T01:56:08;97682.44;;;17.65;100.00
18850;BME280;4989;48.772;9.154;2023-09-19T02:01:20;97687.19;;;17.65;100.00
18850;BME280;4989;48.772;9.154;2023-09-19T02:06:24;97699.34;;;17.58;100.00
18850;BME280;4989;48.772;9.154;2023-09-19T02:11:28;97694.75;;;17.55;100.00
18850;BME280;4989;48.772;9.154;2023-09-19T02:16:31;97704.66;;;17.47;100.00
18850;BME280;4989;48.772;9.154;2023-09-19T02:21:33;97704.84;;;17.43;100.00
18850;BME280;4989;48.772;9.154;2023-09-19T02:26:35;97712.31;;;17.43;100.00
18850;BME280;4989;48.772;9.154;2023-09-19T02:31:41;97707.50;;;17.37;100.00
18850;BME280;4989;48.772;9.154;2023-09-19T02:36:43;97707.69;;;17.34;100.00
18850;BME280;4989;48.772;9.154;2023-09-19T02:41:46;97718.84;;;17.30;100.00
18850;BME280;4989;48.772;9.154;2023-09-19T02:46:49;97727.47;;;17.23;100.00
18850;BME280;4989;48.772;9.154;2023-09-19T02:51:52;97733.44;;;17.22;100.00
18850;BME280;4989;48.772;9.154;2023-09-19T02:56:54;97743.66;;;17.21;100.00
18850;BME280;4989;48.772;9.154;2023-09-19T03:01:57;97744.44;;;17.22;100.00
18850;BME280;4989;48.772;9.154;2023-09-19T03:07:00;97744.25;;;17.25;100.00
18850;BME280;4989;48.772;9.154;2023-09-19T03:12:04;97741.78;;;17.27;100.00
18850;BME280;4989;48.772;9.154;2023-09-19T03:17:07;97747.25;;;17.27;100.00
18850;BME280;4989;48.772;9.154;2023-09-19T03:22:12;97736.28;;;17.27;100.00
18850;BME280;4989;48.772;9.154;2023-09-19T03:27:14;97747.25;;;17.27;100.00
18850;BME280;4989;48.772;9.154;2023-09-19T03:32:18;97747.56;;;17.29;100.00
18850;BME280;4989;48.772;9.154;2023-09-19T03:37:21;97742.34;;;17.31;100.00
18850;BME280;4989;48.772;9.154;2023-09-19T03:42:24;97745.38;;;17.33;100.00
18850;BME280;4989;48.772;9.154;2023-09-19T03:47:29;97729.38;;;17.32;100.00
18850;BME280;4989;48.772;9.154;2023-09-19T03:52:33;97741.59;;;17.31;100.00
18850;BME280;4989;48.772;9.154;2023-09-19T03:57:36;97734.38;;;17.33;100.00
18850;BME280;4989;48.772;9.154;2023-09-19T04:02:39;97745.38;;;17.33;100.00
18850;BME280;4989;48.772;9.154;2023-09-19T04:07:42;97743.41;;;17.34;100.00
18850;BME280;4989;48.772;9.154;2023-09-19T04:12:55;97734.97;;;17.52;100.00
18850;BME280;4989;48.772;9.154;2023-09-19T04:17:57;97745.00;;;17.40;100.00
18850;BME280;4989;48.772;9.154;2023-09-19T04:22:59;97754.31;;;17.58;100.00
18850;BME280;4989;48.772;9.154;2023-09-19T04:28:02;97752.16;;;18.12;100.00
18850;BME280;4989;48.772;9.154;2023-09-19T04:33:06;97764.31;;;17.76;100.00
18850;BME280;4989;48.772;9.154;2023-09-19T04:38:09;97754.66;;;17.36;100.00
18850;BME280;4989;48.772;9.154;2023-09-19T04:43:11;97768.69;;;17.23;100.00
18850;BME280;4989;48.772;9.154;2023-09-19T04:48:14;97770.38;;;17.21;100.00
18850;BME280;4989;48.772;9.154;2023-09-19T04:53:18;97780.03;;;17.16;100.00
18850;BME280;4989;48.772;9.154;2023-09-19T04:58:22;97790.09;;;17.19;100.00
18850;BME280;4989;48.772;9.154;2023-09-19T05:03:25;97798.31;;;17.19;100.00
18850;BME280;4989;48.772;9.154;2023-09-19T05:08:27;97803.91;;;17.10;100.00
18850;BME280;4989;48.772;9.154;2023-09-19T05:13:29;97807.66;;;16.98;100.00
18850;BME280;4989;48.772;9.154;2023-09-19T05:18:32;97806.34;;;16.84;100.00
18850;BME280;4989;48.772;9.154;2023-09-19T05:23:35;97805.63;;;16.74;100.00
18850;BME280;4989;48.772;9.154;2023-09-19T05:28:39;97812.38;;;16.64;100.00
18850;BME280;4989;48.772;9.154;2023-09-19T05:33:41;97816.00;;;16.70;100.00
18850;BME280;4989;48.772;9.154;2023-09-19T05:38:44;97826.00;;;16.91;100.00
18850;BME280;4989;48.772;9.154;2023-09-19T05:43:49;97843.06;;;19.29;100.00
18850;BME280;4989;48.772;9.154;2023-09-19T05:48:52;97851.19;;;20.17;100.00
18850;BME280;4989;48.772;9.154;2023-09-19T05:53:54;97863.91;;;20.40;100.00
18850;BME280;4989;48.772;9.154;2023-09-19T05:58:57;97882.63;;;18.56;100.00
18850;BME280;4989;48.772;9.154;2023-09-19T06:03:59;97878.72;;;17.82;100.00
18850;BME280;4989;48.772;9.154;2023-09-19T06:09:02;97878.53;;;18.16;100.00
18850;BME280;4989;48.772;9.154;2023-09-19T06:14:07;97884.47;;;19.35;100.00
18850;BME280;4989;48.772;9.154;2023-09-19T06:19:09;97892.84;;;19.66;100.00
18850;BME280;4989;48.772;9.154;2023-09-19T06:24:12;97890.88;;;19.93;100.00
18850;BME280;4989;48.772;9.154;2023-09-19T06:29:14;97882.97;;;19.13;100.00
18850;BME280;4989;48.772;9.154;2023-09-19T06:34:16;97885.72;;;18.78;100.00
18850;BME280;4989;48.772;9.154;2023-09-19T06:39:19;97902.13;;;17.93;100.00
18850;BME280;4989;48.772;9.154;2023-09-19T06:44:24;97894.00;;;17.59;100.00
18850;BME280;4989;48.772;9.154;2023-09-19T06:49:26;97910.88;;;17.28;100.00
18850;BME280;4989;48.772;9.154;2023-09-19T06:54:31;97911.47;;;17.08;100.00
18850;BME280;4989;48.772;9.154;2023-09-19T06:59:33;97904.63;;;17.28;100.00
18850;BME280;4989;48.772;9.154;2023-09-19T07:04:35;97920.94;;;17.70;100.00
18850;BME280;4989;48.772;9.154;2023-09-19T07:09:37;97925.53;;;17.88;100.00
18850;BME280;4989;48.772;9.154;2023-09-19T07:14:39;97934.97;;;17.72;100.00
18850;BME280;4989;48.772;9.154;2023-09-19T07:19:42;97949.22;;;17.47;100.00
18850;BME280;4989;48.772;9.154;2023-09-19T07:24:44;97946.34;;;17.41;100.00
18850;BME280;4989;48.772;9.154;2023-09-19T07:29:47;97952.53;;;17.51;100.00
18850;BME280;4989;48.772;9.154;2023-09-19T07:34:52;97948.25;;;17.74;100.00
18850;BME280;4989;48.772;9.154;2023-09-19T07:39:57;97957.44;;;18.24;100.00
18850;BME280;4989;48.772;9.154;2023-09-19T07:44:59;97969.13;;;18.34;100.00
18850;BME280;4989;48.772;9.154;2023-09-19T07:50:02;97964.28;;;18.59;100.00
18850;BME280;4989;48.772;9.154;2023-09-19T07:55:06;97967.22;;;18.25;100.00
18850;BME280;4989;48.772;9.154;2023-09-19T08:00:13;97972.53;;;18.44;100.00
18850;BME280;4989;48.772;9.154;2023-09-19T08:05:16;97987.34;;;18.61;100.00
18850;BME280;4989;48.772;9.154;2023-09-19T08:10:18;97987.00;;;19.59;100.00
18850;BME280;4989;48.772;9.154;2023-09-19T08:15:21;97984.69;;;20.45;100.00
18850;BME280;4989;48.772;9.154;2023-09-19T08:20:24;97994.72;;;20.69;100.00
18850;BME280;4989;48.772;9.154;2023-09-19T08:25:26;97998.91;;;20.12;100.00
18850;BME280;4989;48.772;9.154;2023-09-19T08:30:28;97997.00;;;20.44;100.00
18850;BME280;4989;48.772;9.154;2023-09-19T08:35:31;97995.31;;;22.35;99.41
18850;BME280;4989;48.772;9.154;2023-09-19T08:40:37;97991.00;;;23.36;87.92
18850;BME280;4989;48.772;9.154;2023-09-19T08:45:42;97999.09;;;22.21;94.12
18850;BME280;4989;48.772;9.154;2023-09-19T08:56:42;98004.91;;;22.40;86.06
18850;BME280;4989;48.772;9.154;2023-09-19T09:01:46;98003.97;;;23.86;77.04
18850;BME280;4989;48.772;9.154;2023-09-19T09:06:50;97999.63;;;24.43;72.85
18850;BME280;4989;48.772;9.154;2023-09-19T09:11:55;98010.78;;;24.73;67.98
18850;BME280;4989;48.772;9.154;2023-09-19T09:17:00;98007.66;;;24.05;69.88
18850;BME280;4989;48.772;9.154;2023-09-19T09:22:08;98023.91;;;24.37;66.56
18850;BME280;4989;48.772;9.154;2023-09-19T09:27:13;98029.06;;;22.39;75.88
18850;BME280;4989;48.772;9.154;2023-09-19T09:32:27;98033.94;;;21.96;72.41
18850;BME280;4989;48.772;9.154;2023-09-19T09:37:31;98018.41;;;22.10;69.38
18850;BME280;4989;48.772;9.154;2023-09-19T09:42:35;98004.91;;;21.69;71.30
18850;BME280;4989;48.772;9.154;2023-09-19T09:47:45;98016.75;;;23.19;70.30
18850;BME280;4989;48.772;9.154;2023-09-19T09:52:57;98014.91;;;22.15;71.69
18850;BME280;4989;48.772;9.154;2023-09-19T09:58:17;98021.63;;;21.91;68.03
18850;BME280;4989;48.772;9.154;2023-09-19T10:03:21;98010.09;;;22.10;67.79
18850;BME280;4989;48.772;9.154;2023-09-19T10:08:24;98019.00;;;22.53;66.79
18850;BME280;4989;48.772;9.154;2023-09-19T10:13:30;98011.47;;;22.59;66.75
18850;BME280;4989;48.772;9.154;2023-09-19T10:18:36;98021.03;;;22.64;69.46
18850;BME280;4989;48.772;9.154;2023-09-19T10:23:43;98012.44;;;22.34;64.73
18850;BME280;4989;48.772;9.154;2023-09-19T10:28:49;98001.34;;;21.57;67.88
18850;BME280;4989;48.772;9.154;2023-09-19T10:33:55;98006.16;;;22.78;69.10
18850;BME280;4989;48.772;9.154;2023-09-19T10:39:00;97996.31;;;21.56;65.98
18850;BME280;4989;48.772;9.154;2023-09-19T10:44:06;98011.09;;;22.07;70.57
18850;BME280;4989;48.772;9.154;2023-09-19T10:49:11;98016.00;;;25.12;55.62
18850;BME280;4989;48.772;9.154;2023-09-19T10:54:19;98000.72;;;26.31;52.11
18850;BME280;4989;48.772;9.154;2023-09-19T10:59:23;98013.41;;;27.55;48.17
18850;BME280;4989;48.772;9.154;2023-09-19T11:04:31;98011.03;;;23.87;58.50
18850;BME280;4989;48.772;9.154;2023-09-19T11:14:49;98012.31;;;23.80;58.79
18850;BME280;4989;48.772;9.154;2023-09-19T11:30:51;97984.78;;;27.09;46.68
18850;BME280;4989;48.772;9.154;2023-09-19T11:36:08;97976.19;;;27.86;44.57
18850;BME280;4989;48.772;9.154;2023-09-19T11:46:24;97986.72;;;24.04;52.34
18850;BME280;4989;48.772;9.154;2023-09-19T11:51:27;97980.88;;;23.44;54.18
18850;BME280;4989;48.772;9.154;2023-09-19T11:56:30;97977.09;;;24.05;53.69
18850;BME280;4989;48.772;9.154;2023-09-19T12:01:34;97977.50;;;24.20;55.47
18850;BME280;4989;48.772;9.154;2023-09-19T12:06:38;97967.88;;;22.94;55.58
18850;BME280;4989;48.772;9.154;2023-09-19T12:11:46;97962.34;;;22.82;57.28
18850;BME280;4989;48.772;9.154;2023-09-19T12:16:54;97955.25;;;22.93;57.88
18850;BME280;4989;48.772;9.154;2023-09-19T12:21:59;97961.78;;;23.23;56.47
18850;BME280;4989;48.772;9.154;2023-09-19T12:27:07;97944.72;;;22.57;58.34
18850;BME280;4989;48.772;9.154;2023-09-19T12:32:10;97941.19;;;22.62;65.67
18850;BME280;4989;48.772;9.154;2023-09-19T12:37:14;97934.88;;;22.28;59.55
18850;BME280;4989;48.772;9.154;2023-09-19T12:42:25;97928.34;;;22.37;59.62
18850;BME280;4989;48.772;9.154;2023-09-19T12:47:34;97931.81;;;23.05;56.85
18850;BME280;4989;48.772;9.154;2023-09-19T12:52:38;97924.53;;;22.91;56.46
18850;BME280;4989;48.772;9.154;2023-09-19T12:57:41;97917.44;;;23.12;58.13
18850;BME280;4989;48.772;9.154;2023-09-19T13:08:39;97916.72;;;22.83;58.46
18850;BME280;4989;48.772;9.154;2023-09-19T13:13:48;97918.47;;;22.86;56.56
18850;BME280;4989;48.772;9.154;2023-09-19T13:18:54;97917.91;;;23.27;57.16
18850;BME280;4989;48.772;9.154;2023-09-19T13:24:18;97905.25;;;23.90;55.38
18850;BME280;4989;48.772;9.154;2023-09-19T13:29:22;97905.72;;;24.00;54.33
18850;BME280;4989;48.772;9.154;2023-09-19T13:34:24;97910.88;;;25.30;49.46
18850;BME280;4989;48.772;9.154;2023-09-19T13:39:27;97914.13;;;26.61;48.80
18850;BME280;4989;48.772;9.154;2023-09-19T13:44:30;97908.06;;;27.76;47.10
18850;BME280;4989;48.772;9.154;2023-09-19T13:49:33;97890.59;;;25.73;49.68
18850;BME280;4989;48.772;9.154;2023-09-19T13:54:38;97887.75;;;27.02;48.39
18850;BME280;4989;48.772;9.154;2023-09-19T13:59:42;97885.25;;;29.11;44.80
18850;BME280;4989;48.772;9.154;2023-09-19T14:04:45;97882.69;;;29.29;41.86
18850;BME280;4989;48.772;9.154;2023-09-19T14:09:47;97887.34;;;25.06;49.89
18850;BME280;4989;48.772;9.154;2023-09-19T14:14:50;97876.66;;;27.49;50.81
18850;BME280;4989;48.772;9.154;2023-09-19T14:19:53;97872.28;;;27.01;45.66
18850;BME280;4989;48.772;9.154;2023-09-19T14:24:56;97890.88;;;26.85;45.33
18850;BME280;4989;48.772;9.154;2023-09-19T14:29:58;97873.13;;;25.53;49.19
18850;BME280;4989;48.772;9.154;2023-09-19T14:35:02;97874.94;;;24.28;53.15
18850;BME280;4989;48.772;9.154;2023-09-19T14:40:05;97868.47;;;25.24;48.17
18850;BME280;4989;48.772;9.154;2023-09-19T14:45:11;97861.34;;;26.89;44.24
18850;BME280;4989;48.772;9.154;2023-09-19T14:50:14;97861.28;;;26.04;46.12
18850;BME280;4989;48.772;9.154;2023-09-19T14:55:18;97849.00;;;26.26;46.33
18850;BME280;4989;48.772;9.154;2023-09-19T15:00:23;97840.81;;;27.88;48.56
18850;BME280;4989;48.772;9.154;2023-09-19T15:05:27;97852.91;;;26.36;45.91
18850;BME280;4989;48.772;9.154;2023-09-19T15:10:30;97851.63;;;24.37;49.59
18850;BME280;4989;48.772;9.154;2023-09-19T15:15:32;97859.34;;;24.19;49.95
18850;BME280;4989;48.772;9.154;2023-09-19T15:20:35;97855.19;;;24.32;55.90
18850;BME280;4989;48.772;9.154;2023-09-19T15:25:38;97855.00;;;23.94;57.56
18850;BME280;4989;48.772;9.154;2023-09-19T15:30:43;97849.47;;;23.47;54.49
18850;BME280;4989;48.772;9.154;2023-09-19T15:35:46;97845.00;;;23.80;59.13
18850;BME280;4989;48.772;9.154;2023-09-19T15:40:48;97837.78;;;23.60;52.13
18850;BME280;4989;48.772;9.154;2023-09-19T15:45:51;97825.22;;;23.47;52.83
18850;BME280;4989;48.772;9.154;2023-09-19T15:50:54;97827.72;;;23.04;54.36
18850;BME280;4989;48.772;9.154;2023-09-19T15:55:57;97825.69;;;23.10;55.48
18850;BME280;4989;48.772;9.154;2023-09-19T16:01:08;97831.31;;;22.82;55.67
18850;BME280;4989;48.772;9.154;2023-09-19T16:06:13;97826.22;;;22.92;58.20
18850;BME280;4989;48.772;9.154;2023-09-19T16:11:17;97824.94;;;23.04;55.59
18850;BME280;4989;48.772;9.154;2023-09-19T16:16:21;97821.19;;;22.90;55.73
18850;BME280;4989;48.772;9.154;2023-09-19T16:21:28;97822.47;;;22.83;59.04
18850;BME280;4989;48.772;9.154;2023-09-19T16:26:32;97825.97;;;23.06;59.30
18850;BME280;4989;48.772;9.154;2023-09-19T16:31:35;97812.59;;;23.05;55.85
18850;BME280;4989;48.772;9.154;2023-09-19T16:36:38;97821.72;;;22.89;56.30
18850;BME280;4989;48.772;9.154;2023-09-19T16:41:41;97817.97;;;22.75;56.98
18850;BME280;4989;48.772;9.154;2023-09-19T16:46:44;97812.97;;;22.51;57.63
18850;BME280;4989;48.772;9.154;2023-09-19T16:51:47;97812.22;;;22.56;58.07
18850;BME280;4989;48.772;9.154;2023-09-19T16:56:49;97816.19;;;22.77;57.47
18850;BME280;4989;48.772;9.154;2023-09-19T17:01:52;97818.78;;;22.53;58.46
18850;BME280;4989;48.772;9.154;2023-09-19T17:06:55;97821.28;;;22.51;60.11
18850;BME280;4989;48.772;9.154;2023-09-19T17:12:00;97810.53;;;22.25;59.58
18850;BME280;4989;48.772;9.154;2023-09-19T17:17:02;97821.34;;;22.28;60.74
18850;BME280;4989;48.772;9.154;2023-09-19T17:22:05;97818.53;;;22.06;62.41
18850;BME280;4989;48.772;9.154;2023-09-19T17:27:08;97822.56;;;21.77;62.59
18850;BME280;4989;48.772;9.154;2023-09-19T17:32:10;97827.84;;;21.58;64.35
18850;BME280;4989;48.772;9.154;2023-09-19T17:37:13;97828.31;;;21.39;64.79
18850;BME280;4989;48.772;9.154;2023-09-19T17:42:15;97836.53;;;21.34;65.63
18850;BME280;4989;48.772;9.154;2023-09-19T17:47:18;97827.94;;;21.20;67.58
18850;BME280;4989;48.772;9.154;2023-09-19T17:52:21;97837.94;;;21.01;69.94
18850;BME280;4989;48.772;9.154;2023-09-19T17:57:24;97834.09;;;20.87;71.04
18850;BME280;4989;48.772;9.154;2023-09-19T18:02:28;97841.22;;;21.11;71.03
18850;BME280;4989;48.772;9.154;2023-09-19T18:07:31;97850.41;;;20.85;72.37
18850;BME280;4989;48.772;9.154;2023-09-19T18:12:34;97857.13;;;20.73;70.60
18850;BME280;4989;48.772;9.154;2023-09-19T18:17:36;97867.25;;;20.87;74.42
18850;BME280;4989;48.772;9.154;2023-09-19T18:22:39;97869.06;;;20.96;71.47
18850;BME280;4989;48.772;9.154;2023-09-19T18:27:42;97864.25;;;20.85;73.79
18850;BME280;4989;48.772;9.154;2023-09-19T18:32:44;97871.56;;;21.42;82.92
18850;BME280;4989;48.772;9.154;2023-09-19T18:37:47;97873.16;;;22.11;69.20
18850;BME280;4989;48.772;9.154;2023-09-19T18:42:50;97871.69;;;21.22;72.40
18850;BME280;4989;48.772;9.154;2023-09-19T18:47:54;97879.00;;;21.25;73.55
18850;BME280;4989;48.772;9.154;2023-09-19T18:52:57;97881.72;;;22.02;82.08
18850;BME280;4989;48.772;9.154;2023-09-19T18:58:00;97876.97;;;22.58;73.82
18850;BME280;4989;48.772;9.154;2023-09-19T19:03:02;97883.66;;;23.08;83.14
18850;BME280;4989;48.772;9.154;2023-09-19T19:08:07;97887.38;;;23.33;80.09
18850;BME280;4989;48.772;9.154;2023-09-19T19:13:10;97895.59;;;23.50;81.60
18850;BME280;4989;48.772;9.154;2023-09-19T19:18:12;97901.16;;;23.50;77.97
18850;BME280;4989;48.772;9.154;2023-09-19T19:23:15;97905.06;;;23.24;76.84
18850;BME280;4989;48.772;9.154;2023-09-19T19:28:19;97910.88;;;23.15;71.16
18850;BME280;4989;48.772;9.154;2023-09-19T19:33:25;97912.38;;;23.16;78.05
18850;BME280;4989;48.772;9.154;2023-09-19T19:38:29;97910.63;;;23.19;75.83
18850;BME280;4989;48.772;9.154;2023-09-19T19:43:32;97921.41;;;23.34;78.67
18850;BME280;4989;48.772;9.154;2023-09-19T19:48:35;97920.41;;;23.25;78.80
18850;BME280;4989;48.772;9.154;2023-09-19T19:53:40;97922.91;;;23.35;77.96
18850;BME280;4989;48.772;9.154;2023-09-19T19:58:43;97935.50;;;23.36;77.03
18850;BME280;4989;48.772;9.154;2023-09-19T20:03:47;97931.75;;;23.33;76.92
18850;BME280;4989;48.772;9.154;2023-09-19T20:08:51;97942.06;;;23.32;77.05
18850;BME280;4989;48.772;9.154;2023-09-19T20:13:55;97939.06;;;23.30;77.06
18850;BME280;4989;48.772;9.154;2023-09-19T20:19:02;97948.13;;;23.37;77.85
18850;BME280;4989;48.772;9.154;2023-09-19T20:24:06;97944.13;;;23.26;76.22
18850;BME280;4989;48.772;9.154;2023-09-19T20:29:12;97937.16;;;22.58;74.11
18850;BME280;4989;48.772;9.154;2023-09-19T20:34:15;97939.94;;;21.47;66.33
18850;BME280;4989;48.772;9.154;2023-09-19T20:39:18;97936.25;;;20.44;69.29
18850;BME280;4989;48.772;9.154;2023-09-19T20:44:24;97932.16;;;19.82;71.91
18850;BME280;4989;48.772;9.154;2023-09-19T20:49:29;97939.03;;;19.10;74.10
18850;BME280;4989;48.772;9.154;2023-09-19T20:54:31;97938.16;;;18.84;76.33
18850;BME280;4989;48.772;9.154;2023-09-19T20:59:33;97946.97;;;18.88;81.18
18850;BME280;4989;48.772;9.154;2023-09-19T21:04:35;97937.09;;;18.81;76.58
18850;BME280;4989;48.772;9.154;2023-09-19T21:09:38;97934.16;;;18.85;76.41
18850;BME280;4989;48.772;9.154;2023-09-19T21:14:40;97928.75;;;18.75;76.91
18850;BME280;4989;48.772;9.154;2023-09-19T21:19:44;97930.22;;;18.26;79.15
18850;BME280;4989;48.772;9.154;2023-09-19T21:24:49;97935.03;;;18.02;79.79
18850;BME280;4989;48.772;9.154;2023-09-19T21:29:54;97940.63;;;17.93;80.89
18850;BME280;4989;48.772;9.154;2023-09-19T21:34:57;97938.41;;;17.82;81.84
18850;BME280;4989;48.772;9.154;2023-09-19T21:39:59;97930.53;;;17.75;83.06
18850;BME280;4989;48.772;9.154;2023-09-19T21:45:01;97933.81;;;17.64;84.25
18850;BME280;4989;48.772;9.154;2023-09-19T21:50:04;97933.94;;;17.46;85.13
18850;BME280;4989;48.772;9.154;2023-09-19T21:55:07;97934.00;;;17.36;85.79
18850;BME280;4989;48.772;9.154;2023-09-19T22:00:09;97934.94;;;17.33;85.83
18850;BME280;4989;48.772;9.154;2023-09-19T22:05:25;97941.63;;;17.42;84.89
18850;BME280;4989;48.772;9.154;2023-09-19T22:10:28;97937.28;;;17.50;83.53
18850;BME280;4989;48.772;9.154;2023-09-19T22:15:35;97938.16;;;17.56;82.94
18850;BME280;4989;48.772;9.154;2023-09-19T22:20:45;97936.63;;;17.55;82.75
18850;BME280;4989;48.772;9.154;2023-09-19T22:25:55;97939.09;;;17.53;82.77
18850;BME280;4989;48.772;9.154;2023-09-19T22:30:57;97949.03;;;17.50;83.00
18850;BME280;4989;48.772;9.154;2023-09-19T22:35:59;97944.00;;;17.49;83.37
18850;BME280;4989;48.772;9.154;2023-09-19T22:41:06;97938.91;;;17.56;82.52
18850;BME280;4989;48.772;9.154;2023-09-19T22:46:16;97949.78;;;17.51;83.60
18850;BME280;4989;48.772;9.154;2023-09-19T22:51:20;97944.13;;;17.30;85.37
18850;BME280;4989;48.772;9.154;2023-09-19T22:56:25;97954.91;;;17.19;86.69
18850;BME280;4989;48.772;9.154;2023-09-19T23:01:30;97949.16;;;17.08;88.07
18850;BME280;4989;48.772;9.154;2023-09-19T23:06:38;97951.00;;;17.02;88.92
18850;BME280;4989;48.772;9.154;2023-09-19T23:11:41;97941.66;;;17.08;88.73
18850;BME280;4989;48.772;9.154;2023-09-19T23:16:45;97947.09;;;17.17;88.27
18850;BME280;4989;48.772;9.154;2023-09-19T23:21:59;97946.94;;;17.21;87.84
18850;BME280;4989;48.772;9.154;2023-09-19T23:27:17;97941.16;;;17.19;87.96
18850;BME280;4989;48.772;9.154;2023-09-19T23:32:27;97939.91;;;17.20;87.83
18850;BME280;4989;48.772;9.154;2023-09-19T23:37:29;97937.47;;;17.22;88.18
18850;BME280;4989;48.772;9.154;2023-09-19T23:42:33;97943.19;;;17.33;88.22
18850;BME280;4989;48.772;9.154;2023-09-19T23:47:35;97946.22;;;17.35;88.33
18850;BME280;4989;48.772;9.154;2023-09-19T23:52:38;97952.09;;;17.28;89.25
18850;BME280;4989;48.772;9.154;2023-09-19T23:57:40;97942.28;;;17.03;91.63
